Time;durP1;ratioP1;P1;durP2;ratioP2;P2;SDS_P1;SDS_P2;PMS_P1;PMS_P2;Temp;Humidity;BMP_temperature;BMP_pressure;BME280_temperature;BME280_humidity;BME280_pressure;Samples;Min_cycle;Max_cycle;Signal;HPM_P1;HPM_P2
2023/07/30 00:00:20;;;;;;;6.15;2.50;;;20.10;99.90;;;;;;5024886;28;20258;-32
2023/07/30 00:02:47;;;;;;;5.22;2.65;;;20.10;99.90;;;;;;5020742;28;20263;-32
2023/07/30 00:05:19;;;;;;;4.32;2.53;;;20.10;99.90;;;;;;5024811;28;20270;-32
2023/07/30 00:07:49;;;;;;;6.47;2.65;;;20.10;99.90;;;;;;5023625;28;20237;-32
2023/07/30 00:10:19;;;;;;;6.63;2.60;;;20.10;99.90;;;;;;5020472;28;20316;-32
2023/07/30 00:12:46;;;;;;;5.43;2.50;;;20.00;99.90;;;;;;5009564;28;20206;-32
2023/07/30 00:15:13;;;;;;;6.53;2.55;;;20.00;99.90;;;;;;5015110;28;20205;-32
2023/07/30 00:17:40;;;;;;;8.25;2.72;;;20.00;99.90;;;;;;5009091;28;20667;-32
2023/07/30 00:20:08;;;;;;;6.55;2.70;;;20.00;99.90;;;;;;5016609;28;20210;-32
2023/07/30 00:22:36;;;;;;;4.13;2.22;;;20.00;99.90;;;;;;5014065;28;20193;-25
2023/07/30 00:25:03;;;;;;;6.57;2.42;;;20.00;99.90;;;;;;5025125;28;20201;-24
2023/07/30 00:27:30;;;;;;;6.20;2.40;;;19.90;99.90;;;;;;5025211;28;20427;-24
2023/07/30 00:30:00;;;;;;;6.30;2.35;;;19.90;99.90;;;;;;5013528;28;20702;-24
2023/07/30 00:32:29;;;;;;;7.07;2.33;;;19.90;99.90;;;;;;5007670;28;20273;-25
2023/07/30 00:34:56;;;;;;;9.00;2.67;;;19.90;99.90;;;;;;5005510;28;20210;-25
2023/07/30 00:37:24;;;;;;;6.30;2.85;;;19.90;99.90;;;;;;5023928;28;20205;-25
2023/07/30 00:39:51;;;;;;;3.80;2.25;;;19.90;99.90;;;;;;5024760;28;20553;-25
2023/07/30 00:42:18;;;;;;;5.20;2.45;;;19.90;99.90;;;;;;5006937;28;20259;-25
2023/07/30 00:44:45;;;;;;;6.93;2.35;;;19.80;99.90;;;;;;5016158;28;20220;-25
2023/07/30 00:47:13;;;;;;;6.30;2.53;;;19.80;99.90;;;;;;5022721;28;20220;-24
2023/07/30 00:49:42;;;;;;;9.82;2.70;;;19.80;99.90;;;;;;5022474;28;20220;-25
2023/07/30 00:52:10;;;;;;;6.40;2.60;;;19.80;99.90;;;;;;5022904;28;20200;-24
2023/07/30 00:54:40;;;;;;;7.47;2.60;;;19.80;99.90;;;;;;5024376;28;20645;-25
2023/07/30 00:57:08;;;;;;;10.10;2.92;;;19.70;99.90;;;;;;5022998;28;20202;-24
2023/07/30 00:59:41;;;;;;;7.10;2.58;;;19.70;99.90;;;;;;5022067;28;20205;-24
2023/07/30 01:02:13;;;;;;;10.00;2.70;;;19.70;99.90;;;;;;5019502;28;20208;-24
2023/07/30 01:04:43;;;;;;;5.85;2.70;;;19.70;99.90;;;;;;5011092;28;20251;-25
2023/07/30 01:07:11;;;;;;;10.30;2.45;;;19.70;99.90;;;;;;5022165;28;20228;-24
2023/07/30 01:09:38;;;;;;;9.75;2.65;;;19.70;99.90;;;;;;5023391;28;20225;-24
2023/07/30 01:12:07;;;;;;;8.77;2.25;;;19.70;99.90;;;;;;5023100;28;20212;-25
2023/07/30 01:14:37;;;;;;;6.20;2.58;;;19.60;99.90;;;;;;5022713;28;20211;-24
2023/07/30 01:17:17;;;;;;;7.43;1.95;;;19.70;99.90;;;;;;5010865;28;20255;-24
2023/07/30 01:19:47;;;;;;;9.43;3.00;;;19.70;99.90;;;;;;5011410;28;20264;-24
2023/07/30 01:22:16;;;;;;;6.57;2.20;;;19.60;99.90;;;;;;5038930;28;20201;-24
2023/07/30 01:24:43;;;;;;;5.10;2.25;;;19.70;99.90;;;;;;5023472;28;20816;-25
2023/07/30 01:27:22;;;;;;;7.13;2.58;;;19.70;99.90;;;;;;5039131;28;20307;-24
2023/07/30 01:29:56;;;;;;;7.45;2.70;;;19.70;99.90;;;;;;5027486;28;20196;-25
2023/07/30 01:32:31;;;;;;;7.13;2.55;;;19.70;99.90;;;;;;5017190;28;20201;-25
2023/07/30 01:35:00;;;;;;;6.75;2.15;;;19.70;99.90;;;;;;5016046;28;20223;-25
2023/07/30 01:37:29;;;;;;;5.95;2.30;;;19.70;99.90;;;;;;5022824;28;20209;-24
2023/07/30 01:39:58;;;;;;;9.65;2.65;;;19.70;99.90;;;;;;5025775;28;20232;-31
2023/07/30 01:42:29;;;;;;;6.88;2.22;;;19.70;99.90;;;;;;5021019;28;20256;-32
2023/07/30 01:44:57;;;;;;;8.27;2.60;;;19.70;99.90;;;;;;5015605;28;20221;-31
2023/07/30 01:47:24;;;;;;;5.68;2.22;;;19.70;99.90;;;;;;4999952;28;20225;-31
2023/07/30 01:49:52;;;;;;;5.90;2.22;;;19.70;99.90;;;;;;5013175;28;20232;-31
2023/07/30 01:52:19;;;;;;;7.72;3.08;;;19.80;99.90;;;;;;5008878;28;20679;-31
2023/07/30 01:54:48;;;;;;;7.82;2.58;;;19.70;99.90;;;;;;5033604;28;20217;-32
2023/07/30 01:57:18;;;;;;;10.13;2.30;;;19.80;99.90;;;;;;5027243;28;20241;-31
2023/07/30 01:59:48;;;;;;;7.40;2.20;;;19.80;99.90;;;;;;5025481;28;20204;-31
2023/07/30 02:02:17;;;;;;;7.35;2.33;;;19.80;99.90;;;;;;5025412;28;20599;-32
2023/07/30 02:04:44;;;;;;;9.63;2.80;;;19.80;99.90;;;;;;5021810;28;20710;-32
2023/07/30 02:07:14;;;;;;;7.30;2.33;;;19.80;99.90;;;;;;5023916;28;20212;-31
2023/07/30 02:09:41;;;;;;;9.95;2.67;;;19.80;99.90;;;;;;5026405;28;20223;-31
2023/07/30 02:12:08;;;;;;;6.75;2.70;;;19.80;99.90;;;;;;5004642;28;20193;-32
2023/07/30 02:14:40;;;;;;;8.70;2.92;;;19.80;99.90;;;;;;5025634;28;20204;-31
2023/07/30 02:17:07;;;;;;;6.68;2.20;;;19.80;99.90;;;;;;5008631;28;20442;-24
2023/07/30 02:19:34;;;;;;;7.70;2.63;;;19.90;99.90;;;;;;5019392;28;20213;-25
2023/07/30 02:22:04;;;;;;;9.95;2.78;;;19.90;99.90;;;;;;5025884;28;20246;-25
2023/07/30 02:24:36;;;;;;;8.90;2.53;;;19.90;99.90;;;;;;5010981;28;20228;-25
2023/07/30 02:27:03;;;;;;;7.65;2.75;;;19.90;99.90;;;;;;5022688;28;20225;-24
2023/07/30 02:29:33;;;;;;;7.80;2.13;;;19.90;99.90;;;;;;5019101;28;20229;-25
2023/07/30 02:32:00;;;;;;;7.38;2.33;;;19.90;99.90;;;;;;5005550;28;20209;-24
2023/07/30 02:34:28;;;;;;;10.20;2.55;;;19.90;99.90;;;;;;5024229;28;20263;-25
2023/07/30 02:36:57;;;;;;;8.20;2.53;;;19.90;99.90;;;;;;5016788;28;20205;-24
2023/07/30 02:39:27;;;;;;;7.30;2.38;;;19.90;99.90;;;;;;5026610;28;20248;-24
2023/07/30 02:41:54;;;;;;;6.80;2.05;;;19.90;99.90;;;;;;5024341;28;20641;-24
2023/07/30 02:44:21;;;;;;;6.93;2.40;;;19.90;99.90;;;;;;5027457;28;20201;-24
2023/07/30 02:46:53;;;;;;;5.68;2.08;;;19.90;99.90;;;;;;5024197;28;20275;-24
2023/07/30 02:49:20;;;;;;;8.68;2.20;;;19.90;99.90;;;;;;5019822;28;20287;-24
2023/07/30 02:51:50;;;;;;;6.03;2.40;;;19.90;99.90;;;;;;5019628;28;20205;-24
2023/07/30 02:54:20;;;;;;;7.07;1.88;;;19.90;99.90;;;;;;5015434;28;20217;-24
2023/07/30 02:56:48;;;;;;;6.97;2.15;;;19.80;99.90;;;;;;5024465;28;20197;-24
2023/07/30 02:59:15;;;;;;;8.48;2.15;;;19.80;99.90;;;;;;5015066;28;20213;-24
2023/07/30 03:01:42;;;;;;;8.38;2.17;;;19.80;99.90;;;;;;5026272;28;20580;-24
2023/07/30 03:04:09;;;;;;;8.35;2.75;;;19.80;99.90;;;;;;5025504;28;20215;-25
2023/07/30 03:06:36;;;;;;;8.30;2.50;;;19.80;99.90;;;;;;5004564;28;20256;-25
2023/07/30 03:09:04;;;;;;;9.20;2.65;;;19.80;99.90;;;;;;5005517;28;20230;-25
2023/07/30 03:11:31;;;;;;;7.07;2.30;;;19.80;99.90;;;;;;5005074;28;20210;-24
2023/07/30 03:13:58;;;;;;;9.40;2.22;;;19.80;99.90;;;;;;5022403;28;20282;-24
2023/07/30 03:16:28;;;;;;;9.23;2.67;;;19.80;99.90;;;;;;5026458;28;20201;-24
2023/07/30 03:18:57;;;;;;;10.20;2.40;;;19.70;99.90;;;;;;5006804;28;20206;-25
2023/07/30 03:21:27;;;;;;;4.68;1.95;;;19.70;99.90;;;;;;5004721;28;20218;-25
2023/07/30 03:23:54;;;;;;;8.05;1.98;;;19.70;99.90;;;;;;5006180;28;20202;-25
2023/07/30 03:26:24;;;;;;;6.55;2.25;;;19.70;99.90;;;;;;5005231;28;20240;-25
2023/07/30 03:28:51;;;;;;;9.30;2.17;;;19.70;99.90;;;;;;5005401;28;20767;-24
2023/07/30 03:31:18;;;;;;;7.45;2.30;;;19.70;99.90;;;;;;5023845;28;20722;-25
2023/07/30 03:33:48;;;;;;;7.15;2.38;;;19.60;99.90;;;;;;5024256;28;20211;-24
2023/07/30 03:36:17;;;;;;;7.65;2.20;;;19.60;99.90;;;;;;5011125;28;20612;-25
2023/07/30 03:38:45;;;;;;;8.98;2.95;;;19.60;99.90;;;;;;5022620;28;20237;-24
2023/07/30 03:41:15;;;;;;;6.70;2.35;;;19.60;99.90;;;;;;5008249;28;20678;-24
2023/07/30 03:43:44;;;;;;;11.80;3.03;;;19.60;99.90;;;;;;5005798;28;20687;-24
2023/07/30 03:46:11;;;;;;;7.40;2.72;;;19.60;99.90;;;;;;5024947;28;21008;-24
2023/07/30 03:48:38;;;;;;;8.65;2.58;;;19.60;99.90;;;;;;5014652;28;20217;-24
2023/07/30 03:51:08;;;;;;;8.70;2.22;;;19.60;99.90;;;;;;5021727;28;20225;-24
2023/07/30 03:53:38;;;;;;;7.40;2.55;;;19.60;99.90;;;;;;5024881;28;20471;-25
2023/07/30 03:56:05;;;;;;;8.00;2.63;;;19.60;99.90;;;;;;5025697;28;20219;-25
2023/07/30 03:58:32;;;;;;;6.95;2.10;;;19.60;99.90;;;;;;5024127;28;20197;-24
2023/07/30 04:01:02;;;;;;;9.38;2.03;;;19.60;99.90;;;;;;5017191;28;20693;-24
2023/07/30 04:03:32;;;;;;;6.07;2.13;;;19.60;99.90;;;;;;5019655;28;20651;-24
2023/07/30 04:06:01;;;;;;;9.23;2.50;;;19.60;99.90;;;;;;5025005;28;20219;-24
2023/07/30 04:08:29;;;;;;;8.98;2.13;;;19.60;99.90;;;;;;5008056;28;20684;-24
2023/07/30 04:10:58;;;;;;;11.98;2.63;;;19.60;99.90;;;;;;5023420;28;20227;-25
2023/07/30 04:13:28;;;;;;;8.82;2.47;;;19.60;99.90;;;;;;5005031;28;20229;-24
2023/07/30 04:15:59;;;;;;;7.43;2.55;;;19.70;99.90;;;;;;5036929;28;20240;-25
2023/07/30 04:18:27;;;;;;;8.88;2.05;;;19.70;99.90;;;;;;5027205;28;20679;-25
2023/07/30 04:20:56;;;;;;;7.13;2.55;;;19.70;99.90;;;;;;5023798;28;20635;-24
2023/07/30 04:23:23;;;;;;;7.93;2.10;;;19.70;99.90;;;;;;5024874;28;20254;-24
2023/07/30 04:25:53;;;;;;;6.32;1.63;;;19.70;99.90;;;;;;5012257;28;20303;-25
2023/07/30 04:28:23;;;;;;;6.20;2.05;;;19.70;99.90;;;;;;5005682;28;20222;-24
2023/07/30 04:30:52;;;;;;;11.55;3.38;;;19.70;99.90;;;;;;5006543;28;20244;-24
2023/07/30 04:33:19;;;;;;;12.80;2.53;;;19.70;99.90;;;;;;5017275;28;20201;-25
2023/07/30 04:35:47;;;;;;;10.30;2.60;;;19.70;99.90;;;;;;5018494;28;20569;-25
2023/07/30 04:38:14;;;;;;;8.75;2.38;;;19.70;99.90;;;;;;5004737;28;20241;-25
2023/07/30 04:40:41;;;;;;;9.68;2.40;;;19.70;99.90;;;;;;5012278;28;20221;-24
2023/07/30 04:43:10;;;;;;;11.18;2.85;;;19.70;99.90;;;;;;5005446;28;20210;-24
2023/07/30 04:45:40;;;;;;;10.05;2.42;;;19.70;99.90;;;;;;5022970;28;20536;-25
2023/07/30 04:48:07;;;;;;;10.48;2.40;;;19.70;99.90;;;;;;5006830;28;20234;-25
2023/07/30 04:50:38;;;;;;;8.98;2.40;;;19.70;99.90;;;;;;5023699;28;20613;-25
2023/07/30 04:53:05;;;;;;;12.15;2.95;;;19.70;99.90;;;;;;5023637;28;20219;-25
2023/07/30 04:55:32;;;;;;;8.05;2.33;;;19.70;99.90;;;;;;5012989;28;20283;-25
2023/07/30 04:58:00;;;;;;;9.75;2.40;;;19.70;99.90;;;;;;5011053;28;20303;-25
2023/07/30 05:00:28;;;;;;;11.40;3.22;;;19.70;99.90;;;;;;5007839;28;20209;-24
2023/07/30 05:02:59;;;;;;;11.40;3.20;;;19.70;99.90;;;;;;5010998;28;20248;-25
2023/07/30 05:05:29;;;;;;;11.93;2.80;;;19.70;99.90;;;;;;5023195;28;20243;-25
2023/07/30 05:07:56;;;;;;;17.23;2.65;;;19.70;99.90;;;;;;5026167;28;20244;-24
2023/07/30 05:10:23;;;;;;;9.18;2.50;;;19.70;99.90;;;;;;5014839;28;20617;-25
2023/07/30 05:12:51;;;;;;;12.77;2.88;;;19.70;99.90;;;;;;5028260;28;20205;-24
2023/07/30 05:15:18;;;;;;;9.10;2.58;;;19.70;99.90;;;;;;5025211;28;20303;-24
2023/07/30 05:17:47;;;;;;;10.77;2.72;;;19.70;99.90;;;;;;5026060;28;20251;-25
2023/07/30 05:20:17;;;;;;;10.77;3.03;;;19.70;99.90;;;;;;5007729;28;20197;-24
2023/07/30 05:22:44;;;;;;;11.00;2.42;;;19.70;99.90;;;;;;5013883;28;20287;-25
2023/07/30 05:25:11;;;;;;;9.48;2.80;;;19.70;99.90;;;;;;5028531;28;20795;-25
2023/07/30 05:27:38;;;;;;;11.32;2.58;;;19.70;99.90;;;;;;5010716;28;20626;-24
2023/07/30 05:30:08;;;;;;;9.75;2.50;;;19.70;99.90;;;;;;5035248;28;20290;-24
2023/07/30 05:32:38;;;;;;;8.60;2.55;;;19.70;99.90;;;;;;5026503;28;20683;-25
2023/07/30 05:35:05;;;;;;;11.05;2.97;;;19.70;99.90;;;;;;5006711;28;20209;-24
2023/07/30 05:37:33;;;;;;;13.52;3.13;;;19.70;99.90;;;;;;5017075;28;20193;-32
2023/07/30 05:40:03;;;;;;;12.00;2.63;;;19.70;99.90;;;;;;5024795;28;20248;-31
2023/07/30 05:42:30;;;;;;;10.63;2.83;;;19.70;99.90;;;;;;5010081;28;20216;-32
2023/07/30 05:44:57;;;;;;;8.35;2.83;;;19.70;99.90;;;;;;5012804;28;20212;-32
2023/07/30 05:47:24;;;;;;;9.32;2.10;;;19.70;99.90;;;;;;5004572;28;20216;-31
2023/07/30 05:49:52;;;;;;;12.15;2.92;;;19.70;99.90;;;;;;5009770;28;20225;-31
2023/07/30 05:52:19;;;;;;;13.25;3.00;;;19.70;99.90;;;;;;5022385;28;20198;-32
2023/07/30 05:54:48;;;;;;;10.27;3.20;;;19.70;99.90;;;;;;5010301;28;20571;-31
2023/07/30 05:57:15;;;;;;;11.13;2.63;;;19.70;99.90;;;;;;5010291;28;20217;-32
2023/07/30 05:59:47;;;;;;;9.93;2.55;;;19.70;99.90;;;;;;5026733;28;20206;-32
2023/07/30 06:02:15;;;;;;;12.70;2.75;;;19.80;99.90;;;;;;5015736;28;20197;-32
2023/07/30 06:04:42;;;;;;;12.45;3.45;;;19.70;99.90;;;;;;5018389;28;20683;-32
2023/07/30 06:07:12;;;;;;;15.50;3.55;;;19.80;99.90;;;;;;5025676;28;20200;-32
2023/07/30 06:09:42;;;;;;;10.93;2.72;;;19.80;99.90;;;;;;5032507;28;20795;-32
2023/07/30 06:12:09;;;;;;;9.50;2.65;;;19.80;99.90;;;;;;5030269;28;20465;-31
2023/07/30 06:15:07;;;;;;;15.02;3.28;;;19.80;99.90;;;;;;5017469;28;20652;-32
2023/07/30 06:17:35;;;;;;;10.32;2.78;;;19.80;99.90;;;;;;5025172;28;20229;-31
2023/07/30 06:20:03;;;;;;;16.98;3.22;;;19.80;99.90;;;;;;5032126;28;20201;-32
2023/07/30 06:22:30;;;;;;;11.30;2.38;;;19.80;99.90;;;;;;5020368;28;20225;-32
2023/07/30 06:24:58;;;;;;;16.10;3.20;;;19.80;99.90;;;;;;5016646;28;20332;-31
2023/07/30 06:27:25;;;;;;;14.35;3.17;;;19.80;99.90;;;;;;5007603;28;20259;-32
2023/07/30 06:29:54;;;;;;;9.85;2.80;;;19.80;99.90;;;;;;4989671;28;20237;-31
2023/07/30 06:32:27;;;;;;;10.23;2.30;;;19.80;99.90;;;;;;5013841;28;20682;-31
2023/07/30 06:34:54;;;;;;;11.63;2.92;;;19.80;99.90;;;;;;5011904;28;20275;-32
2023/07/30 06:37:26;;;;;;;10.60;3.13;;;19.90;99.90;;;;;;5016066;28;20225;-32
2023/07/30 06:39:53;;;;;;;11.32;2.65;;;19.90;99.90;;;;;;5014758;28;20237;-31
2023/07/30 06:42:20;;;;;;;14.45;2.83;;;19.90;99.90;;;;;;5010485;28;20222;-32
2023/07/30 06:44:47;;;;;;;15.07;3.15;;;19.80;99.90;;;;;;5017665;28;20571;-32
2023/07/30 06:47:16;;;;;;;14.07;3.20;;;19.90;99.90;;;;;;5009424;28;20762;-32
2023/07/30 06:49:46;;;;;;;10.75;2.95;;;19.90;99.90;;;;;;5007571;28;20240;-32
2023/07/30 06:52:13;;;;;;;8.98;2.47;;;19.90;99.90;;;;;;5006256;28;20221;-32
2023/07/30 06:54:40;;;;;;;10.82;2.78;;;19.90;99.90;;;;;;5023002;28;20673;-32
2023/07/30 06:57:10;;;;;;;8.50;2.42;;;20.00;99.90;;;;;;5005193;28;20253;-32
2023/07/30 06:59:37;;;;;;;8.40;2.83;;;20.00;99.90;;;;;;4989620;28;20213;-32
2023/07/30 07:02:05;;;;;;;12.55;2.85;;;20.00;99.90;;;;;;5019365;28;20204;-31
2023/07/30 07:04:32;;;;;;;9.45;2.55;;;20.00;99.90;;;;;;5026938;28;20567;-32
2023/07/30 07:07:03;;;;;;;10.32;2.75;;;20.00;99.90;;;;;;5009959;28;20247;-32
2023/07/30 07:09:30;;;;;;;15.45;2.38;;;20.00;99.90;;;;;;5005509;28;20327;-32
2023/07/30 07:11:58;;;;;;;9.20;2.88;;;20.10;99.90;;;;;;5021793;28;20209;-32
2023/07/30 07:14:31;;;;;;;10.52;2.85;;;20.10;99.90;;;;;;5024551;28;20303;-25
2023/07/30 07:16:58;;;;;;;9.60;3.17;;;20.10;99.90;;;;;;5015236;28;20272;-24
2023/07/30 07:19:31;;;;;;;11.85;2.92;;;20.10;99.90;;;;;;5011702;28;20288;-24
2023/07/30 07:22:00;;;;;;;12.07;3.28;;;20.10;99.90;;;;;;5004126;28;20212;-24
2023/07/30 07:24:30;;;;;;;9.68;2.88;;;20.10;99.90;;;;;;5006830;28;20210;-24
2023/07/30 07:26:58;;;;;;;11.18;2.85;;;20.20;99.90;;;;;;5019842;28;20218;-25
2023/07/30 07:29:25;;;;;;;13.02;3.38;;;20.20;99.90;;;;;;5040957;28;20231;-24
2023/07/30 07:31:53;;;;;;;11.77;3.38;;;20.20;99.90;;;;;;5007593;28;20204;-25
2023/07/30 07:34:21;;;;;;;12.32;2.95;;;20.30;99.90;;;;;;5008690;28;20220;-24
2023/07/30 07:36:48;;;;;;;8.23;2.60;;;20.30;99.90;;;;;;5008406;28;20225;-24
2023/07/30 07:39:16;;;;;;;12.43;2.90;;;20.30;99.90;;;;;;5022390;28;20294;-25
2023/07/30 07:41:45;;;;;;;15.95;2.92;;;20.40;99.90;;;;;;5004176;28;20275;-25
2023/07/30 07:44:15;;;;;;;14.18;2.80;;;20.40;99.90;;;;;;5030181;28;20318;-24
2023/07/30 07:46:44;;;;;;;11.13;3.10;;;20.40;99.90;;;;;;5012783;28;20286;-25
2023/07/30 07:49:16;;;;;;;11.48;2.38;;;20.50;99.90;;;;;;5025449;28;20240;-24
2023/07/30 07:51:49;;;;;;;11.77;2.83;;;20.50;99.90;;;;;;5039919;28;20217;-25
2023/07/30 07:54:16;;;;;;;10.20;2.90;;;20.50;99.90;;;;;;5033796;28;20678;-24
2023/07/30 07:56:50;;;;;;;9.93;2.47;;;20.50;99.90;;;;;;5014649;28;20212;-25
2023/07/30 07:59:18;;;;;;;11.57;2.50;;;20.50;99.90;;;;;;5023005;28;20227;-25
2023/07/30 08:01:45;;;;;;;15.85;2.97;;;20.60;99.90;;;;;;5024055;28;20197;-24
2023/07/30 08:04:14;;;;;;;11.98;2.90;;;20.60;99.90;;;;;;5017576;28;20420;-24
2023/07/30 08:06:44;;;;;;;9.80;2.75;;;20.70;99.90;;;;;;5020843;28;20287;-25
2023/07/30 08:09:11;;;;;;;9.05;2.58;;;20.70;99.90;;;;;;5035996;28;20903;-25
2023/07/30 08:11:38;;;;;;;10.10;2.65;;;20.70;99.90;;;;;;5010921;28;20210;-25
2023/07/30 08:14:06;;;;;;;9.85;2.85;;;20.80;99.90;;;;;;5005343;28;20304;-25
2023/07/30 08:16:35;;;;;;;9.10;2.45;;;20.80;99.90;;;;;;4989286;28;20578;-24
2023/07/30 08:19:05;;;;;;;9.80;2.40;;;20.80;99.90;;;;;;5007227;28;20218;-24
2023/07/30 08:21:32;;;;;;;11.45;2.63;;;20.80;99.90;;;;;;5004931;28;20679;-24
2023/07/30 08:24:08;;;;;;;9.07;2.58;;;20.90;99.90;;;;;;5008791;28;20304;-25
2023/07/30 08:26:35;;;;;;;8.85;2.33;;;20.90;99.90;;;;;;5009141;28;20226;-25
2023/07/30 08:29:06;;;;;;;9.65;2.60;;;21.00;99.90;;;;;;5023831;28;20221;-25
2023/07/30 08:31:33;;;;;;;7.95;2.80;;;21.00;99.90;;;;;;5022434;28;20236;-24
2023/07/30 08:34:00;;;;;;;10.60;2.42;;;21.00;99.90;;;;;;5039061;28;20205;-25
2023/07/30 08:36:30;;;;;;;6.93;2.05;;;21.10;99.90;;;;;;5022724;28;20224;-24
2023/07/30 08:38:58;;;;;;;9.63;2.13;;;21.20;99.90;;;;;;5010698;28;20314;-25
2023/07/30 08:41:27;;;;;;;10.60;2.33;;;21.20;99.90;;;;;;5000308;28;20674;-24
2023/07/30 08:43:55;;;;;;;8.38;2.50;;;21.30;99.90;;;;;;5009930;28;20217;-25
2023/07/30 08:46:22;;;;;;;8.63;2.25;;;21.30;99.90;;;;;;5016262;28;20256;-24
2023/07/30 08:48:49;;;;;;;6.82;2.13;;;21.40;99.90;;;;;;5005320;28;20216;-25
2023/07/30 08:51:18;;;;;;;7.85;2.33;;;21.40;99.90;;;;;;5030660;28;20209;-25
2023/07/30 08:53:48;;;;;;;9.60;2.33;;;21.40;99.90;;;;;;5033253;28;20268;-24
2023/07/30 08:56:16;;;;;;;7.75;2.85;;;21.40;99.90;;;;;;4995258;28;20212;-25
2023/07/30 08:58:44;;;;;;;9.82;2.40;;;21.50;99.90;;;;;;5010407;28;20213;-25
2023/07/30 09:01:14;;;;;;;7.82;2.30;;;21.50;99.90;;;;;;5018730;28;20733;-25
2023/07/30 09:03:44;;;;;;;11.23;2.53;;;21.50;99.90;;;;;;5017869;28;20218;-24
2023/07/30 09:06:13;;;;;;;11.32;2.35;;;21.60;99.90;;;;;;5030609;28;20619;-24
2023/07/30 09:08:43;;;;;;;7.97;2.08;;;21.60;99.90;;;;;;4995109;28;20743;-24
2023/07/30 09:11:13;;;;;;;8.70;2.50;;;21.60;99.90;;;;;;5023901;28;20233;-24
2023/07/30 09:13:44;;;;;;;10.38;2.75;;;21.70;99.90;;;;;;5011397;28;20305;-31
2023/07/30 09:16:13;;;;;;;10.77;2.63;;;21.60;99.90;;;;;;5008932;28;20679;-32
2023/07/30 09:18:45;;;;;;;7.88;2.33;;;21.60;99.90;;;;;;5020640;28;20411;-31
2023/07/30 09:21:13;;;;;;;8.20;2.30;;;21.60;99.90;;;;;;5019806;28;20221;-31
2023/07/30 09:23:48;;;;;;;10.68;2.50;;;21.60;99.90;;;;;;5007800;28;20210;-31
2023/07/30 09:26:18;;;;;;;8.73;2.10;;;21.60;99.90;;;;;;5033862;28;20205;-31
2023/07/30 09:28:48;;;;;;;7.88;2.60;;;21.60;99.90;;;;;;5025924;28;20213;-31
2023/07/30 09:31:17;;;;;;;9.05;2.42;;;21.60;99.90;;;;;;5008830;28;20765;-31
2023/07/30 09:33:55;;;;;;;5.55;1.75;;;21.50;99.90;;;;;;5010376;28;20275;-31
2023/07/30 09:36:23;;;;;;;7.25;1.85;;;21.50;99.90;;;;;;5014980;28;20595;-31
2023/07/30 09:38:50;;;;;;;5.90;1.60;;;21.50;99.90;;;;;;5025789;28;20233;-31
2023/07/30 09:41:18;;;;;;;5.15;1.40;;;21.40;99.90;;;;;;5021424;28;20210;-31
2023/07/30 09:43:47;;;;;;;5.35;1.52;;;21.30;99.90;;;;;;5019122;28;20271;-31
2023/07/30 09:46:17;;;;;;;10.20;1.98;;;21.30;99.90;;;;;;5014444;28;20222;-31
2023/07/30 09:48:44;;;;;;;6.18;1.70;;;21.20;99.90;;;;;;4981443;28;20205;-31
2023/07/30 09:51:11;;;;;;;5.65;1.70;;;21.20;99.90;;;;;;5006212;28;20229;-30
2023/07/30 09:53:39;;;;;;;7.05;2.30;;;21.20;99.90;;;;;;5022870;28;21106;-31
2023/07/30 09:56:09;;;;;;;7.97;1.90;;;21.20;99.90;;;;;;5025824;28;20225;-31
2023/07/30 09:58:37;;;;;;;5.70;1.73;;;21.20;99.90;;;;;;5006193;28;20203;-31
2023/07/30 10:01:06;;;;;;;5.38;1.85;;;21.30;99.90;;;;;;5006915;28;20301;-30
2023/07/30 10:03:35;;;;;;;5.05;1.50;;;21.30;99.90;;;;;;5009934;28;20208;-30
2023/07/30 10:06:07;;;;;;;5.18;1.58;;;21.30;99.90;;;;;;5026568;28;20204;-30
2023/07/30 10:08:39;;;;;;;7.45;1.70;;;21.40;99.90;;;;;;5010062;28;20213;-31
2023/07/30 10:11:11;;;;;;;8.40;1.75;;;21.40;99.90;;;;;;5015802;28;20232;-30
2023/07/30 10:13:41;;;;;;;4.72;1.52;;;21.40;99.90;;;;;;5013951;28;20276;-30
2023/07/30 10:16:11;;;;;;;6.22;1.75;;;21.40;99.90;;;;;;5009751;28;20462;-30
2023/07/30 10:18:43;;;;;;;5.45;2.10;;;21.40;99.90;;;;;;5011564;28;20194;-31
2023/07/30 10:21:21;;;;;;;6.30;1.98;;;21.50;99.90;;;;;;5004711;28;20258;-31
2023/07/30 10:24:04;;;;;;;9.88;2.40;;;21.40;99.90;;;;;;5021216;28;20206;-31
2023/07/30 10:26:36;;;;;;;6.18;1.98;;;21.40;99.90;;;;;;5017207;28;20217;-31
2023/07/30 10:29:19;;;;;;;6.88;2.15;;;21.40;99.90;;;;;;5034712;28;20255;-31
2023/07/30 10:31:52;;;;;;;6.40;1.75;;;21.30;99.90;;;;;;5019568;28;20216;-31
2023/07/30 10:34:21;;;;;;;9.40;2.08;;;21.20;99.90;;;;;;5022052;28;20259;-30
2023/07/30 10:36:50;;;;;;;7.28;1.77;;;21.10;99.90;;;;;;5013558;28;20213;-25
2023/07/30 10:39:28;;;;;;;9.15;2.20;;;21.00;99.90;;;;;;5019747;28;20233;-25
2023/07/30 10:42:00;;;;;;;10.23;2.55;;;21.00;99.90;;;;;;5033904;28;20684;-25
2023/07/30 10:44:36;;;;;;;7.55;2.17;;;20.90;99.90;;;;;;5035877;28;20205;-24
2023/07/30 10:47:03;;;;;;;5.80;2.33;;;20.90;99.90;;;;;;4997350;28;20255;-25
2023/07/30 10:49:37;;;;;;;6.07;2.28;;;20.90;99.90;;;;;;5019689;28;20363;-25
2023/07/30 10:52:07;;;;;;;7.65;2.20;;;20.90;99.90;;;;;;5013494;28;20823;-25
2023/07/30 10:54:42;;;;;;;6.18;2.03;;;20.90;99.90;;;;;;5012258;28;20210;-25
2023/07/30 10:57:11;;;;;;;7.07;2.17;;;20.90;99.90;;;;;;5015349;28;20300;-25
2023/07/30 10:59:41;;;;;;;6.72;2.17;;;20.90;99.90;;;;;;5013434;28;20205;-25
2023/07/30 11:02:08;;;;;;;6.68;2.38;;;20.90;99.90;;;;;;5024792;28;20586;-25
2023/07/30 11:04:36;;;;;;;5.88;1.75;;;20.90;99.90;;;;;;5008630;28;20214;-25
2023/07/30 11:07:03;;;;;;;7.45;1.92;;;21.00;99.90;;;;;;5003357;28;20217;-25
2023/07/30 11:09:31;;;;;;;6.22;2.00;;;21.00;99.90;;;;;;5012508;28;20240;-25
2023/07/30 11:12:02;;;;;;;6.15;1.50;;;21.00;99.90;;;;;;5012960;28;20205;-25
2023/07/30 11:14:30;;;;;;;7.13;2.20;;;21.00;99.90;;;;;;5014616;28;20214;-25
2023/07/30 11:17:00;;;;;;;6.03;1.92;;;21.00;99.90;;;;;;5012196;28;21054;-25
2023/07/30 11:19:30;;;;;;;6.03;1.92;;;21.10;99.90;;;;;;5015111;28;20208;-25
2023/07/30 11:22:00;;;;;;;7.28;1.80;;;21.10;99.90;;;;;;5015955;28;20679;-25
2023/07/30 11:24:37;;;;;;;10.30;2.20;;;21.10;99.90;;;;;;5011551;28;20707;-25
2023/07/30 11:27:07;;;;;;;4.18;1.60;;;21.10;99.90;;;;;;5011761;28;20206;-25
2023/07/30 11:29:34;;;;;;;8.65;1.83;;;21.10;99.90;;;;;;5000186;28;20283;-25
2023/07/30 11:32:04;;;;;;;8.07;1.83;;;21.10;99.90;;;;;;5000025;28;20209;-25
2023/07/30 11:34:38;;;;;;;6.85;2.00;;;21.10;99.90;;;;;;5021054;28;21013;-25
2023/07/30 11:37:08;;;;;;;9.88;2.10;;;21.20;99.90;;;;;;5011770;28;20690;-25
2023/07/30 11:39:36;;;;;;;6.45;1.88;;;21.20;99.90;;;;;;5020014;28;20229;-25
2023/07/30 11:42:06;;;;;;;6.53;2.00;;;21.30;99.90;;;;;;5021693;28;20205;-25
2023/07/30 11:44:37;;;;;;;5.75;1.60;;;21.40;99.90;;;;;;5013572;28;20685;-25
2023/07/30 11:47:09;;;;;;;5.97;1.60;;;21.40;99.90;;;;;;5025117;28;20205;-25
2023/07/30 11:49:36;;;;;;;5.85;1.92;;;21.50;99.90;;;;;;5016498;28;20209;-25
2023/07/30 11:52:09;;;;;;;5.05;1.90;;;21.50;99.90;;;;;;5014689;28;20265;-25
2023/07/30 11:54:39;;;;;;;7.95;1.85;;;21.60;99.90;;;;;;5023885;28;20275;-25
2023/07/30 11:57:08;;;;;;;7.35;1.83;;;21.70;99.90;;;;;;5025819;28;20327;-25
2023/07/30 11:59:36;;;;;;;6.55;1.73;;;21.60;99.90;;;;;;5008910;28;20201;-25
2023/07/30 12:02:06;;;;;;;5.18;1.55;;;21.60;99.90;;;;;;5008696;28;20296;-25
2023/07/30 12:04:45;;;;;;;5.60;1.55;;;21.70;99.90;;;;;;4988236;28;20201;-25
2023/07/30 12:07:30;;;;;;;7.60;1.60;;;21.70;99.90;;;;;;5014654;28;20224;-25
2023/07/30 12:10:13;;;;;;;5.65;1.63;;;21.80;99.90;;;;;;5020722;28;20201;-25
2023/07/30 12:12:52;;;;;;;4.10;1.20;;;21.80;99.90;;;;;;5004399;28;20202;-25
2023/07/30 12:15:22;;;;;;;4.57;1.50;;;21.80;99.90;;;;;;5020450;28;20198;-24
2023/07/30 12:17:50;;;;;;;6.22;1.42;;;21.90;99.90;;;;;;5014822;28;20557;-25
2023/07/30 12:20:17;;;;;;;6.22;1.60;;;21.90;99.90;;;;;;5001333;28;20280;-25
2023/07/30 12:22:44;;;;;;;4.15;1.13;;;21.90;99.90;;;;;;5008028;28;20219;-25
2023/07/30 12:25:14;;;;;;;4.28;1.00;;;21.90;99.90;;;;;;5009949;28;20204;-25
2023/07/30 12:27:43;;;;;;;2.53;1.00;;;21.90;99.90;;;;;;5022080;28;20220;-25
2023/07/30 12:30:11;;;;;;;5.20;1.30;;;21.90;99.90;;;;;;5005736;28;20225;-25
2023/07/30 12:32:38;;;;;;;3.63;1.10;;;22.00;99.90;;;;;;5016886;28;20206;-25
2023/07/30 12:35:08;;;;;;;3.53;1.30;;;21.90;99.90;;;;;;5040415;28;20785;-25
2023/07/30 12:37:36;;;;;;;5.28;1.58;;;22.00;99.90;;;;;;5024459;28;20687;-25
2023/07/30 12:40:04;;;;;;;5.93;1.70;;;22.00;99.90;;;;;;5019698;28;20241;-25
2023/07/30 12:42:33;;;;;;;4.20;1.42;;;22.00;99.90;;;;;;5023878;28;20309;-25
2023/07/30 12:45:03;;;;;;;3.83;1.42;;;22.00;99.90;;;;;;5005234;28;20711;-25
2023/07/30 12:47:30;;;;;;;5.00;1.42;;;22.00;99.90;;;;;;5029624;28;20197;-25
2023/07/30 12:49:59;;;;;;;5.03;1.40;;;22.00;99.90;;;;;;5007710;28;20206;-25
2023/07/30 12:52:27;;;;;;;6.85;2.03;;;22.00;99.90;;;;;;5007627;28;20201;-25